Time,TemperatureF,DewpointF,PressureIn,WindDirection,WindDirectionDegrees,WindSpeedMPH,WindSpeedGustMPH,Humidity,HourlyPrecipIn,Conditions,Clouds,dailyrainin,SoftwareType,DateUTC
2013-06-25 00:01:00,75.0,62.0,-100.00,SSE,150,4.0,7.0,66,-99.99,,,-99.99,,2013-06-25 05:01:00,
2013-06-25 00:11:00,75.0,62.0,-100.00,SSE,150,4.0,7.0,66,-99.99,,,-99.99,,2013-06-25 05:11:00,
2013-06-25 00:22:00,75.0,62.0,-100.00,SSE,150,4.0,7.0,66,-99.99,,,-99.99,,2013-06-25 05:22:00,
2013-06-25 00:44:00,75.0,62.0,-100.00,SSE,165,6.0,9.0,64,-99.99,,,-99.99,,2013-06-25 05:44:00,
2013-06-25 00:52:00,75.0,62.0,-100.00,SSE,165,6.0,9.0,64,-99.99,,,-99.99,,2013-06-25 05:52:00,
2013-06-25 01:01:00,74.0,63.0,-100.00,SSE,160,6.0,9.0,69,-99.99,,,-99.99,,2013-06-25 06:01:00,
2013-06-25 01:43:00,73.0,64.0,-100.00,SSE,160,4.0,7.0,74,-99.99,,,-99.99,,2013-06-25 06:43:00,
2013-06-25 01:52:00,73.0,64.0,-100.00,SSE,160,4.0,7.0,74,-99.99,,,-99.99,,2013-06-25 06:52:00,
2013-06-25 02:02:00,72.0,64.0,-100.00,SSE,160,4.0,7.0,77,-99.99,,,-99.99,,2013-06-25 07:02:00,
2013-06-25 02:11:00,72.0,64.0,-100.00,SSE,160,4.0,7.0,77,-99.99,,,-99.99,,2013-06-25 07:11:00,
2013-06-25 02:22:00,72.0,64.0,-100.00,SSE,160,4.0,7.0,77,-99.99,,,-99.99,,2013-06-25 07:22:00,
2013-06-25 02:43:00,71.0,65.0,-100.00,SE,140,4.0,7.0,82,-99.99,,,-99.99,,2013-06-25 07:43:00,
2013-06-25 02:52:00,71.0,65.0,-100.00,SE,140,4.0,7.0,82,-99.99,,,-99.99,,2013-06-25 07:52:00,
2013-06-25 03:01:00,70.0,65.0,-100.00,SE,135,4.0,6.0,87,-99.99,,,-99.99,,2013-06-25 08:01:00,
2013-06-25 03:11:00,70.0,65.0,-100.00,SE,135,4.0,6.0,87,-99.99,,,-99.99,,2013-06-25 08:11:00,
2013-06-25 03:21:00,70.0,65.0,-100.00,SE,135,4.0,6.0,87,-99.99,,,-99.99,,2013-06-25 08:21:00,
2013-06-25 03:43:00,68.0,65.0,-100.00,ESE,115,2.0,6.0,90,-99.99,,,-99.99,,2013-06-25 08:43:00,
2013-06-25 03:53:00,68.0,65.0,-100.00,ESE,115,2.0,6.0,90,-99.99,,,-99.99,,2013-06-25 08:53:00,
2013-06-25 04:02:00,66.0,64.0,-100.00,ESE,110,6.0,7.0,94,-99.99,,,-99.99,,2013-06-25 09:02:00,
2013-06-25 04:12:00,66.0,64.0,-100.00,ESE,110,6.0,7.0,94,-99.99,,,-99.99,,2013-06-25 09:12:00,
2013-06-25 04:22:00,66.0,64.0,-100.00,ESE,110,6.0,7.0,94,-99.99,,,-99.99,,2013-06-25 09:22:00,
2013-06-25 04:43:00,65.0,64.0,-100.00,ESE,110,5.0,7.0,96,-99.99,,,-99.99,,2013-06-25 09:43:00,
2013-06-25 04:53:00,65.0,64.0,-100.00,ESE,110,5.0,7.0,96,-99.99,,,-99.99,,2013-06-25 09:53:00,
2013-06-25 05:01:00,66.0,65.0,-100.00,ESE,120,5.0,7.0,97,-99.99,,,-99.99,,2013-06-25 10:01:00,
2013-06-25 05:11:00,66.0,65.0,-100.00,ESE,120,5.0,7.0,97,-99.99,,,-99.99,,2013-06-25 10:11:00,
2013-06-25 05:21:00,66.0,65.0,-100.00,ESE,120,5.0,7.0,97,-99.99,,,-99.99,,2013-06-25 10:21:00,
2013-06-25 05:43:00,65.0,64.0,-100.00,ESE,120,4.0,6.0,98,-99.99,,,-99.99,,2013-06-25 10:43:00,
2013-06-25 05:52:00,65.0,64.0,-100.00,ESE,120,4.0,6.0,98,-99.99,,,-99.99,,2013-06-25 10:52:00,
2013-06-25 06:02:00,64.0,64.0,-100.00,ESE,110,4.0,6.0,99,-99.99,,,-99.99,,2013-06-25 11:02:00,
2013-06-25 06:12:00,64.0,64.0,-100.00,ESE,110,4.0,6.0,99,-99.99,,,-99.99,,2013-06-25 11:12:00,
2013-06-25 06:22:00,64.0,64.0,-100.00,ESE,110,4.0,6.0,99,-99.99,,,-99.99,,2013-06-25 11:22:00,
2013-06-25 06:43:00,64.0,64.0,-100.00,ESE,110,4.0,6.0,99,-99.99,,,-99.99,,2013-06-25 11:43:00,
2013-06-25 06:52:00,64.0,64.0,-100.00,ESE,110,4.0,6.0,99,-99.99,,,-99.99,,2013-06-25 11:52:00,
2013-06-25 07:01:00,66.0,65.0,-100.00,East,100,2.0,6.0,99,-99.99,,,-99.99,,2013-06-25 12:01:00,
2013-06-25 07:11:00,66.0,65.0,-100.00,East,100,2.0,6.0,99,-99.99,,,-99.99,,2013-06-25 12:11:00,
2013-06-25 07:22:00,66.0,65.0,-100.00,East,100,2.0,6.0,99,-99.99,,,-99.99,,2013-06-25 12:22:00,
2013-06-25 07:43:00,69.0,68.0,-100.00,SE,140,4.0,6.0,98,-99.99,,,-99.99,,2013-06-25 12:43:00,
2013-06-25 07:55:00,69.0,68.0,-100.00,SE,140,4.0,6.0,98,-99.99,,,-99.99,,2013-06-25 12:55:00,
2013-06-25 08:02:00,69.0,68.0,-100.00,SE,140,4.0,6.0,98,-99.99,,,-99.99,,2013-06-25 13:02:00,
2013-06-25 09:01:00,74.0,69.0,-100.00,South,185,8.0,15.0,86,-99.99,,,-99.99,,2013-06-25 14:01:00,
2013-06-25 09:11:00,74.0,69.0,-100.00,South,185,8.0,15.0,86,-99.99,,,-99.99,,2013-06-25 14:11:00,
2013-06-25 09:22:00,74.0,69.0,-100.00,South,185,8.0,15.0,86,-99.99,,,-99.99,,2013-06-25 14:22:00,
2013-06-25 09:43:00,74.0,69.0,-100.00,SSE,165,9.0,14.0,85,-99.99,,,-99.99,,2013-06-25 14:43:00,
2013-06-25 09:53:00,74.0,69.0,-100.00,SSE,165,9.0,14.0,85,-99.99,,,-99.99,,2013-06-25 14:53:00,
2013-06-25 10:01:00,75.0,70.0,-100.00,South,175,10.0,18.0,84,-99.99,,,-99.99,,2013-06-25 15:01:00,
2013-06-25 10:11:00,75.0,70.0,-100.00,South,175,10.0,18.0,84,-99.99,,,-99.99,,2013-06-25 15:11:00,
2013-06-25 10:22:00,75.0,70.0,-100.00,South,175,10.0,18.0,84,-99.99,,,-99.99,,2013-06-25 15:22:00,
2013-06-25 10:44:00,76.0,69.0,-100.00,SSE,155,12.0,18.0,79,-99.99,,,-99.99,,2013-06-25 15:44:00,
2013-06-25 10:53:00,76.0,69.0,-100.00,SSE,155,12.0,18.0,79,-99.99,,,-99.99,,2013-06-25 15:53:00,
2013-06-25 11:03:00,79.0,69.0,-100.00,SE,130,9.0,17.0,72,-99.99,,,-99.99,,2013-06-25 16:03:00,
2013-06-25 11:12:00,79.0,69.0,-100.00,SE,130,9.0,17.0,72,-99.99,,,-99.99,,2013-06-25 16:12:00,
2013-06-25 11:23:00,79.0,69.0,-100.00,SE,130,9.0,17.0,72,-99.99,,,-99.99,,2013-06-25 16:23:00,
2013-06-25 11:35:00,81.0,70.0,-100.00,SE,140,7.0,14.0,69,-99.99,,,-99.99,,2013-06-25 16:35:00,
2013-06-25 11:44:00,81.0,70.0,-100.00,SE,140,7.0,14.0,69,-99.99,,,-99.99,,2013-06-25 16:44:00,
2013-06-25 11:52:00,81.0,70.0,-100.00,SE,140,7.0,14.0,69,-99.99,,,-99.99,,2013-06-25 16:52:00,
2013-06-25 12:01:00,81.0,70.0,-100.00,SE,140,7.0,14.0,69,-99.99,,,-99.99,,2013-06-25 17:01:00,
2013-06-25 13:02:00,85.0,70.0,-100.00,SE,135,12.0,18.0,62,-99.99,,,-99.99,,2013-06-25 18:02:00,
2013-06-25 13:12:00,85.0,70.0,-100.00,SE,135,12.0,18.0,62,-99.99,,,-99.99,,2013-06-25 18:12:00,
2013-06-25 13:22:00,85.0,70.0,-100.00,SE,135,12.0,18.0,62,-99.99,,,-99.99,,2013-06-25 18:22:00,
2013-06-25 13:45:00,84.0,70.0,-100.00,South,175,10.0,18.0,62,-99.99,,,-99.99,,2013-06-25 18:45:00,
2013-06-25 13:53:00,84.0,70.0,-100.00,South,175,10.0,18.0,62,-99.99,,,-99.99,,2013-06-25 18:53:00,
2013-06-25 14:01:00,84.0,70.0,-100.00,South,175,12.0,21.0,62,-99.99,,,-99.99,,2013-06-25 19:01:00,
2013-06-25 14:12:00,84.0,70.0,-100.00,South,175,12.0,21.0,62,-99.99,,,-99.99,,2013-06-25 19:12:00,
2013-06-25 14:22:00,84.0,70.0,-100.00,South,175,12.0,21.0,62,-99.99,,,-99.99,,2013-06-25 19:22:00,
2013-06-25 14:33:00,85.0,71.0,-100.00,South,190,13.0,19.0,62,-99.99,,,-99.99,,2013-06-25 19:33:00,
2013-06-25 14:44:00,85.0,71.0,-100.00,South,190,13.0,19.0,62,-99.99,,,-99.99,,2013-06-25 19:44:00,
2013-06-25 14:54:00,85.0,71.0,-100.00,South,190,13.0,19.0,62,-99.99,,,-99.99,,2013-06-25 19:54:00,
2013-06-25 15:02:00,85.0,70.0,-100.00,SSE,160,12.0,18.0,61,-99.99,,,-99.99,,2013-06-25 20:02:00,
2013-06-25 15:11:00,85.0,70.0,-100.00,SSE,160,12.0,18.0,61,-99.99,,,-99.99,,2013-06-25 20:11:00,
2013-06-25 15:22:00,85.0,70.0,-100.00,SSE,160,12.0,18.0,61,-99.99,,,-99.99,,2013-06-25 20:22:00,
2013-06-25 15:43:00,85.0,70.0,-100.00,SSE,165,9.0,14.0,61,-99.99,,,-99.99,,2013-06-25 20:43:00,
2013-06-25 15:52:00,85.0,70.0,-100.00,SSE,165,9.0,14.0,61,-99.99,,,-99.99,,2013-06-25 20:52:00,
2013-06-25 16:01:00,85.0,70.0,-100.00,SE,135,11.0,17.0,61,-99.99,,,-99.99,,2013-06-25 21:01:00,
2013-06-25 16:11:00,85.0,70.0,-100.00,SE,135,11.0,17.0,61,-99.99,,,-99.99,,2013-06-25 21:11:00,
2013-06-25 16:22:00,85.0,70.0,-100.00,SE,135,11.0,17.0,61,-99.99,,,-99.99,,2013-06-25 21:22:00,
2013-06-25 16:43:00,87.0,70.0,-100.00,SE,145,8.0,21.0,57,-99.99,,,-99.99,,2013-06-25 21:43:00,
2013-06-25 16:53:00,87.0,70.0,-100.00,SE,145,8.0,21.0,57,-99.99,,,-99.99,,2013-06-25 21:53:00,
2013-06-25 17:01:00,88.0,70.0,-100.00,South,175,11.0,19.0,55,-99.99,,,-99.99,,2013-06-25 22:01:00,
2013-06-25 17:11:00,88.0,70.0,-100.00,South,175,11.0,19.0,55,-99.99,,,-99.99,,2013-06-25 22:11:00,
2013-06-25 17:22:00,88.0,70.0,-100.00,South,175,11.0,19.0,55,-99.99,,,-99.99,,2013-06-25 22:22:00,
2013-06-25 17:42:00,88.0,70.0,-100.00,SE,135,11.0,21.0,56,-99.99,,,-99.99,,2013-06-25 22:42:00,
2013-06-25 17:52:00,88.0,70.0,-100.00,SE,135,11.0,21.0,56,-99.99,,,-99.99,,2013-06-25 22:52:00,
2013-06-25 18:01:00,88.0,70.0,-100.00,SE,135,11.0,21.0,56,-99.99,,,-99.99,,2013-06-25 23:01:00,
2013-06-25 19:02:00,87.0,70.0,-100.00,SE,140,12.0,21.0,57,-99.99,,,-99.99,,2013-06-26 00:02:00,
2013-06-25 19:11:00,87.0,70.0,-100.00,SE,140,12.0,21.0,57,-99.99,,,-99.99,,2013-06-26 00:11:00,
2013-06-25 19:22:00,87.0,70.0,-100.00,SE,140,12.0,21.0,57,-99.99,,,-99.99,,2013-06-26 00:22:00,
2013-06-25 19:42:00,86.0,70.0,-100.00,SE,135,11.0,17.0,59,-99.99,,,-99.99,,2013-06-26 00:42:00,
2013-06-25 19:53:00,86.0,70.0,-100.00,SE,135,11.0,17.0,59,-99.99,,,-99.99,,2013-06-26 00:53:00,
2013-06-25 20:01:00,85.0,71.0,-100.00,SE,140,7.0,16.0,61,-99.99,,,-99.99,,2013-06-26 01:01:00,
2013-06-25 20:11:00,85.0,71.0,-100.00,SE,140,7.0,16.0,61,-99.99,,,-99.99,,2013-06-26 01:11:00,
2013-06-25 20:22:00,85.0,71.0,-100.00,SE,140,7.0,16.0,61,-99.99,,,-99.99,,2013-06-26 01:22:00,
2013-06-25 20:43:00,85.0,71.0,-100.00,ESE,115,5.0,10.0,64,-99.99,,,-99.99,,2013-06-26 01:43:00,
2013-06-25 20:53:00,85.0,71.0,-100.00,ESE,115,5.0,10.0,64,-99.99,,,-99.99,,2013-06-26 01:53:00,
2013-06-25 21:02:00,83.0,72.0,-100.00,ESE,120,7.0,10.0,69,-99.99,,,-99.99,,2013-06-26 02:02:00,
2013-06-25 21:11:00,83.0,72.0,-100.00,ESE,120,7.0,10.0,69,-99.99,,,-99.99,,2013-06-26 02:11:00,
2013-06-25 21:22:00,83.0,72.0,-100.00,ESE,120,7.0,10.0,69,-99.99,,,-99.99,,2013-06-26 02:22:00,
2013-06-25 21:34:00,83.0,72.0,-100.00,ESE,120,7.0,10.0,69,-99.99,,,-99.99,,2013-06-26 02:34:00,
2013-06-25 22:02:00,81.0,72.0,-100.00,SE,125,8.0,12.0,74,-99.99,,,-99.99,,2013-06-26 03:02:00,
2013-06-25 22:11:00,81.0,72.0,-100.00,SE,125,8.0,12.0,74,-99.99,,,-99.99,,2013-06-26 03:11:00,
2013-06-25 22:22:00,81.0,72.0,-100.00,SE,125,8.0,12.0,74,-99.99,,,-99.99,,2013-06-26 03:22:00,
2013-06-25 22:43:00,74.0,67.0,-100.00,South,175,14.0,37.0,78,-99.99,,,-99.99,,2013-06-26 03:43:00,
2013-06-25 22:52:00,74.0,67.0,-100.00,South,175,14.0,37.0,78,-99.99,,,-99.99,,2013-06-26 03:52:00,
2013-06-25 23:01:00,70.0,67.0,-100.00,SSE,160,17.0,26.0,91,-99.99,,,-99.99,,2013-06-26 04:01:00,
2013-06-25 23:12:00,70.0,67.0,-100.00,SSE,160,17.0,26.0,91,-99.99,,,-99.99,,2013-06-26 04:12:00,
2013-06-25 23:22:00,70.0,67.0,-100.00,SSE,160,17.0,26.0,91,-99.99,,,-99.99,,2013-06-26 04:22:00,
2013-06-25 23:33:00,69.0,67.0,-100.00,SSE,165,11.0,18.0,95,-99.99,,,-99.99,,2013-06-26 04:33:00,
2013-06-25 23:43:00,69.0,67.0,-100.00,SSE,165,11.0,18.0,95,-99.99,,,-99.99,,2013-06-26 04:43:00,
2013-06-25 23:53:00,69.0,67.0,-100.00,SSE,165,11.0,18.0,95,-99.99,,,-99.99,,2013-06-26 04:53:00,